sensor_id;sensor_type;location;lat;lon;timestamp;P1;durP1;ratioP1;P2;durP2;ratioP2
74335;SDS011;62755;-33.398;-70.572;2022-08-19T00:00:57;80.25;;;35.85;;
74335;SDS011;62755;-33.398;-70.572;2022-08-19T00:03:26;67.90;;;28.83;;
74335;SDS011;62755;-33.398;-70.572;2022-08-19T00:05:58;58.88;;;26.92;;
74335;SDS011;62755;-33.398;-70.572;2022-08-19T00:08:27;54.53;;;24.15;;
74335;SDS011;62755;-33.398;-70.572;2022-08-19T00:10:57;56.63;;;24.02;;
74335;SDS011;62755;-33.398;-70.572;2022-08-19T00:13:26;50.85;;;23.17;;
74335;SDS011;62755;-33.398;-70.572;2022-08-19T00:15:56;61.70;;;27.42;;
74335;SDS011;62755;-33.398;-70.572;2022-08-19T00:18:26;51.67;;;23.13;;
74335;SDS011;62755;-33.398;-70.572;2022-08-19T00:20:57;72.68;;;34.10;;
74335;SDS011;62755;-33.398;-70.572;2022-08-19T00:23:27;62.50;;;28.02;;
74335;SDS011;62755;-33.398;-70.572;2022-08-19T00:25:59;56.97;;;26.08;;
74335;SDS011;62755;-33.398;-70.572;2022-08-19T00:28:29;59.13;;;24.88;;
74335;SDS011;62755;-33.398;-70.572;2022-08-19T00:31:01;68.28;;;36.90;;
74335;SDS011;62755;-33.398;-70.572;2022-08-19T00:33:32;87.88;;;38.08;;
74335;SDS011;62755;-33.398;-70.572;2022-08-19T00:36:06;88.05;;;39.42;;
74335;SDS011;62755;-33.398;-70.572;2022-08-19T00:38:37;88.00;;;38.50;;
74335;SDS011;62755;-33.398;-70.572;2022-08-19T00:41:09;80.13;;;38.42;;
74335;SDS011;62755;-33.398;-70.572;2022-08-19T00:43:43;96.80;;;41.40;;
74335;SDS011;62755;-33.398;-70.572;2022-08-19T00:46:24;70.15;;;38.75;;
74335;SDS011;62755;-33.398;-70.572;2022-08-19T00:48:54;88.28;;;42.70;;
74335;SDS011;62755;-33.398;-70.572;2022-08-19T00:51:26;71.32;;;38.35;;
74335;SDS011;62755;-33.398;-70.572;2022-08-19T00:53:58;68.20;;;35.95;;
74335;SDS011;62755;-33.398;-70.572;2022-08-19T00:56:29;72.45;;;33.33;;
74335;SDS011;62755;-33.398;-70.572;2022-08-19T00:58:59;66.93;;;32.78;;
74335;SDS011;62755;-33.398;-70.572;2022-08-19T01:01:34;63.65;;;30.67;;
74335;SDS011;62755;-33.398;-70.572;2022-08-19T01:04:04;65.55;;;34.90;;
74335;SDS011;62755;-33.398;-70.572;2022-08-19T01:06:35;79.65;;;37.40;;
74335;SDS011;62755;-33.398;-70.572;2022-08-19T01:09:07;75.85;;;37.90;;
74335;SDS011;62755;-33.398;-70.572;2022-08-19T01:11:38;86.68;;;39.78;;
74335;SDS011;62755;-33.398;-70.572;2022-08-19T01:14:10;77.07;;;37.92;;
74335;SDS011;62755;-33.398;-70.572;2022-08-19T01:16:41;67.15;;;37.22;;
74335;SDS011;62755;-33.398;-70.572;2022-08-19T01:19:12;81.97;;;39.80;;
74335;SDS011;62755;-33.398;-70.572;2022-08-19T01:21:51;77.90;;;40.65;;
74335;SDS011;62755;-33.398;-70.572;2022-08-19T01:24:26;80.93;;;43.47;;
74335;SDS011;62755;-33.398;-70.572;2022-08-19T01:26:56;94.63;;;43.92;;
74335;SDS011;62755;-33.398;-70.572;2022-08-19T01:29:26;82.93;;;41.75;;
74335;SDS011;62755;-33.398;-70.572;2022-08-19T01:31:55;87.90;;;43.20;;
74335;SDS011;62755;-33.398;-70.572;2022-08-19T01:34:25;74.68;;;36.47;;
74335;SDS011;62755;-33.398;-70.572;2022-08-19T01:36:55;79.43;;;37.70;;
74335;SDS011;62755;-33.398;-70.572;2022-08-19T01:39:26;77.72;;;40.10;;
74335;SDS011;62755;-33.398;-70.572;2022-08-19T01:41:56;101.35;;;43.22;;
74335;SDS011;62755;-33.398;-70.572;2022-08-19T01:44:28;71.72;;;36.95;;
74335;SDS011;62755;-33.398;-70.572;2022-08-19T01:46:58;87.40;;;43.47;;
74335;SDS011;62755;-33.398;-70.572;2022-08-19T01:49:29;85.57;;;43.22;;
74335;SDS011;62755;-33.398;-70.572;2022-08-19T01:51:59;89.82;;;46.67;;
74335;SDS011;62755;-33.398;-70.572;2022-08-19T01:54:30;100.60;;;51.63;;
74335;SDS011;62755;-33.398;-70.572;2022-08-19T01:57:01;87.20;;;42.95;;
74335;SDS011;62755;-33.398;-70.572;2022-08-19T01:59:36;68.35;;;36.60;;
74335;SDS011;62755;-33.398;-70.572;2022-08-19T02:02:07;67.43;;;37.63;;
74335;SDS011;62755;-33.398;-70.572;2022-08-19T02:04:36;62.05;;;33.33;;
74335;SDS011;62755;-33.398;-70.572;2022-08-19T02:07:07;64.88;;;32.35;;
74335;SDS011;62755;-33.398;-70.572;2022-08-19T02:09:38;62.63;;;33.17;;
74335;SDS011;62755;-33.398;-70.572;2022-08-19T02:12:08;60.63;;;32.20;;
74335;SDS011;62755;-33.398;-70.572;2022-08-19T02:14:37;52.88;;;30.60;;
74335;SDS011;62755;-33.398;-70.572;2022-08-19T02:17:07;51.92;;;29.48;;
74335;SDS011;62755;-33.398;-70.572;2022-08-19T02:19:36;48.83;;;28.42;;
74335;SDS011;62755;-33.398;-70.572;2022-08-19T02:22:06;56.28;;;28.92;;
74335;SDS011;62755;-33.398;-70.572;2022-08-19T02:24:36;55.22;;;29.48;;
74335;SDS011;62755;-33.398;-70.572;2022-08-19T02:27:07;46.60;;;28.38;;
74335;SDS011;62755;-33.398;-70.572;2022-08-19T02:29:37;55.17;;;29.17;;
74335;SDS011;62755;-33.398;-70.572;2022-08-19T02:32:06;53.88;;;29.73;;
74335;SDS011;62755;-33.398;-70.572;2022-08-19T02:34:36;64.72;;;30.98;;
74335;SDS011;62755;-33.398;-70.572;2022-08-19T02:37:05;60.15;;;32.45;;
74335;SDS011;62755;-33.398;-70.572;2022-08-19T02:39:57;57.25;;;31.83;;
74335;SDS011;62755;-33.398;-70.572;2022-08-19T02:42:26;59.33;;;31.17;;
74335;SDS011;62755;-33.398;-70.572;2022-08-19T02:44:56;51.35;;;31.05;;
74335;SDS011;62755;-33.398;-70.572;2022-08-19T02:47:25;51.67;;;29.80;;
74335;SDS011;62755;-33.398;-70.572;2022-08-19T02:49:55;64.70;;;35.20;;
74335;SDS011;62755;-33.398;-70.572;2022-08-19T02:52:25;49.70;;;26.50;;
74335;SDS011;62755;-33.398;-70.572;2022-08-19T02:54:54;52.28;;;28.38;;
74335;SDS011;62755;-33.398;-70.572;2022-08-19T02:57:26;43.90;;;26.05;;
74335;SDS011;62755;-33.398;-70.572;2022-08-19T02:59:55;57.42;;;28.85;;
74335;SDS011;62755;-33.398;-70.572;2022-08-19T03:02:25;56.78;;;30.67;;
74335;SDS011;62755;-33.398;-70.572;2022-08-19T03:04:54;48.80;;;28.90;;
74335;SDS011;62755;-33.398;-70.572;2022-08-19T03:07:24;55.80;;;29.20;;
74335;SDS011;62755;-33.398;-70.572;2022-08-19T03:09:53;61.75;;;32.13;;
74335;SDS011;62755;-33.398;-70.572;2022-08-19T03:12:25;55.33;;;29.77;;
74335;SDS011;62755;-33.398;-70.572;2022-08-19T03:14:54;51.95;;;29.52;;
74335;SDS011;62755;-33.398;-70.572;2022-08-19T03:17:24;80.95;;;42.08;;
74335;SDS011;62755;-33.398;-70.572;2022-08-19T03:19:53;60.13;;;31.10;;
74335;SDS011;62755;-33.398;-70.572;2022-08-19T03:22:23;65.70;;;35.88;;
74335;SDS011;62755;-33.398;-70.572;2022-08-19T03:24:53;65.82;;;33.00;;
74335;SDS011;62755;-33.398;-70.572;2022-08-19T03:27:24;60.22;;;31.60;;
74335;SDS011;62755;-33.398;-70.572;2022-08-19T03:29:54;62.45;;;30.67;;
74335;SDS011;62755;-33.398;-70.572;2022-08-19T03:32:24;59.00;;;31.80;;
74335;SDS011;62755;-33.398;-70.572;2022-08-19T03:34:53;51.20;;;29.38;;
74335;SDS011;62755;-33.398;-70.572;2022-08-19T03:37:23;58.53;;;31.10;;
74335;SDS011;62755;-33.398;-70.572;2022-08-19T03:39:53;50.42;;;28.55;;
74335;SDS011;62755;-33.398;-70.572;2022-08-19T03:42:24;55.22;;;28.70;;
74335;SDS011;62755;-33.398;-70.572;2022-08-19T03:44:54;50.38;;;25.00;;
74335;SDS011;62755;-33.398;-70.572;2022-08-19T03:47:24;45.03;;;25.70;;
74335;SDS011;62755;-33.398;-70.572;2022-08-19T03:49:53;47.67;;;26.35;;
74335;SDS011;62755;-33.398;-70.572;2022-08-19T03:52:23;43.35;;;25.52;;
74335;SDS011;62755;-33.398;-70.572;2022-08-19T03:54:52;48.58;;;26.40;;
74335;SDS011;62755;-33.398;-70.572;2022-08-19T03:57:22;53.88;;;26.73;;
74335;SDS011;62755;-33.398;-70.572;2022-08-19T03:59:53;44.85;;;25.25;;
74335;SDS011;62755;-33.398;-70.572;2022-08-19T04:02:23;45.15;;;25.65;;
74335;SDS011;62755;-33.398;-70.572;2022-08-19T04:04:53;47.80;;;25.20;;
74335;SDS011;62755;-33.398;-70.572;2022-08-19T04:07:22;43.50;;;23.80;;
74335;SDS011;62755;-33.398;-70.572;2022-08-19T04:09:52;55.03;;;25.20;;
74335;SDS011;62755;-33.398;-70.572;2022-08-19T04:12:21;49.67;;;24.67;;
74335;SDS011;62755;-33.398;-70.572;2022-08-19T04:14:53;44.20;;;25.08;;
74335;SDS011;62755;-33.398;-70.572;2022-08-19T04:17:23;39.03;;;23.10;;
74335;SDS011;62755;-33.398;-70.572;2022-08-19T04:19:52;44.42;;;25.48;;
74335;SDS011;62755;-33.398;-70.572;2022-08-19T04:22:22;47.08;;;25.10;;
74335;SDS011;62755;-33.398;-70.572;2022-08-19T04:24:51;53.33;;;26.08;;
74335;SDS011;62755;-33.398;-70.572;2022-08-19T04:27:21;43.25;;;24.50;;
74335;SDS011;62755;-33.398;-70.572;2022-08-19T04:29:52;45.00;;;24.65;;
74335;SDS011;62755;-33.398;-70.572;2022-08-19T04:32:21;51.90;;;25.85;;
74335;SDS011;62755;-33.398;-70.572;2022-08-19T04:34:51;54.80;;;24.95;;
74335;SDS011;62755;-33.398;-70.572;2022-08-19T04:37:25;44.90;;;23.73;;
74335;SDS011;62755;-33.398;-70.572;2022-08-19T04:39:58;49.95;;;25.50;;
74335;SDS011;62755;-33.398;-70.572;2022-08-19T04:42:43;46.33;;;24.77;;
74335;SDS011;62755;-33.398;-70.572;2022-08-19T04:45:15;42.30;;;24.30;;
74335;SDS011;62755;-33.398;-70.572;2022-08-19T04:47:44;58.50;;;24.02;;
74335;SDS011;62755;-33.398;-70.572;2022-08-19T04:50:14;46.63;;;24.90;;
74335;SDS011;62755;-33.398;-70.572;2022-08-19T04:52:44;41.03;;;24.77;;
74335;SDS011;62755;-33.398;-70.572;2022-08-19T04:55:14;51.80;;;24.95;;
74335;SDS011;62755;-33.398;-70.572;2022-08-19T04:57:43;49.03;;;24.55;;
74335;SDS011;62755;-33.398;-70.572;2022-08-19T05:00:15;46.40;;;22.90;;
74335;SDS011;62755;-33.398;-70.572;2022-08-19T05:02:44;40.80;;;22.85;;
74335;SDS011;62755;-33.398;-70.572;2022-08-19T05:05:15;46.88;;;24.27;;
74335;SDS011;62755;-33.398;-70.572;2022-08-19T05:07:45;41.00;;;23.05;;
74335;SDS011;62755;-33.398;-70.572;2022-08-19T05:10:15;42.92;;;20.38;;
74335;SDS011;62755;-33.398;-70.572;2022-08-19T05:12:44;34.47;;;19.52;;
74335;SDS011;62755;-33.398;-70.572;2022-08-19T05:15:16;33.08;;;18.95;;
74335;SDS011;62755;-33.398;-70.572;2022-08-19T05:17:46;37.30;;;19.08;;
74335;SDS011;62755;-33.398;-70.572;2022-08-19T05:20:29;29.17;;;16.40;;
74335;SDS011;62755;-33.398;-70.572;2022-08-19T05:23:15;30.27;;;15.50;;
74335;SDS011;62755;-33.398;-70.572;2022-08-19T05:25:45;23.73;;;14.40;;
74335;SDS011;62755;-33.398;-70.572;2022-08-19T05:28:14;25.63;;;14.93;;
74335;SDS011;62755;-33.398;-70.572;2022-08-19T05:30:45;28.05;;;14.90;;
74335;SDS011;62755;-33.398;-70.572;2022-08-19T05:33:16;30.63;;;15.18;;
74335;SDS011;62755;-33.398;-70.572;2022-08-19T05:35:46;26.75;;;14.32;;
74335;SDS011;62755;-33.398;-70.572;2022-08-19T05:38:16;26.45;;;15.60;;
74335;SDS011;62755;-33.398;-70.572;2022-08-19T05:40:46;31.77;;;16.58;;
74335;SDS011;62755;-33.398;-70.572;2022-08-19T05:43:16;28.00;;;16.80;;
74335;SDS011;62755;-33.398;-70.572;2022-08-19T05:45:47;29.70;;;16.73;;
74335;SDS011;62755;-33.398;-70.572;2022-08-19T05:48:17;29.15;;;16.50;;
74335;SDS011;62755;-33.398;-70.572;2022-08-19T05:50:47;31.92;;;17.08;;
74335;SDS011;62755;-33.398;-70.572;2022-08-19T05:53:17;29.20;;;17.50;;
74335;SDS011;62755;-33.398;-70.572;2022-08-19T05:55:47;31.25;;;18.00;;
74335;SDS011;62755;-33.398;-70.572;2022-08-19T05:58:16;36.90;;;19.20;;
74335;SDS011;62755;-33.398;-70.572;2022-08-19T06:00:48;35.65;;;19.75;;
74335;SDS011;62755;-33.398;-70.572;2022-08-19T06:03:18;35.17;;;19.65;;
74335;SDS011;62755;-33.398;-70.572;2022-08-19T06:05:47;32.58;;;18.23;;
74335;SDS011;62755;-33.398;-70.572;2022-08-19T06:08:17;35.83;;;17.83;;
74335;SDS011;62755;-33.398;-70.572;2022-08-19T06:10:47;35.20;;;18.42;;
74335;SDS011;62755;-33.398;-70.572;2022-08-19T06:13:17;32.25;;;18.02;;
74335;SDS011;62755;-33.398;-70.572;2022-08-19T06:15:48;38.40;;;21.85;;
74335;SDS011;62755;-33.398;-70.572;2022-08-19T06:18:18;28.10;;;16.35;;
74335;SDS011;62755;-33.398;-70.572;2022-08-19T06:20:48;39.63;;;17.13;;
74335;SDS011;62755;-33.398;-70.572;2022-08-19T06:23:17;33.67;;;17.90;;
74335;SDS011;62755;-33.398;-70.572;2022-08-19T06:25:47;41.83;;;19.90;;
74335;SDS011;62755;-33.398;-70.572;2022-08-19T06:28:16;39.50;;;19.83;;
74335;SDS011;62755;-33.398;-70.572;2022-08-19T06:30:48;36.55;;;21.08;;
74335;SDS011;62755;-33.398;-70.572;2022-08-19T06:33:17;41.35;;;22.27;;
74335;SDS011;62755;-33.398;-70.572;2022-08-19T06:35:47;35.38;;;21.23;;
74335;SDS011;62755;-33.398;-70.572;2022-08-19T06:38:17;36.28;;;21.70;;
74335;SDS011;62755;-33.398;-70.572;2022-08-19T06:40:49;31.90;;;16.63;;
74335;SDS011;62755;-33.398;-70.572;2022-08-19T06:43:18;31.17;;;14.73;;
74335;SDS011;62755;-33.398;-70.572;2022-08-19T06:45:50;27.70;;;15.63;;
74335;SDS011;62755;-33.398;-70.572;2022-08-19T06:48:19;25.63;;;13.80;;
74335;SDS011;62755;-33.398;-70.572;2022-08-19T06:50:49;24.73;;;15.07;;
74335;SDS011;62755;-33.398;-70.572;2022-08-19T06:53:18;26.45;;;15.30;;
74335;SDS011;62755;-33.398;-70.572;2022-08-19T06:55:48;27.80;;;14.90;;
74335;SDS011;62755;-33.398;-70.572;2022-08-19T06:58:25;28.13;;;14.07;;
74335;SDS011;62755;-33.398;-70.572;2022-08-19T07:01:00;22.92;;;13.30;;
74335;SDS011;62755;-33.398;-70.572;2022-08-19T07:03:31;15.98;;;8.85;;
74335;SDS011;62755;-33.398;-70.572;2022-08-19T07:06:02;15.80;;;8.73;;
74335;SDS011;62755;-33.398;-70.572;2022-08-19T07:08:32;21.70;;;9.57;;
74335;SDS011;62755;-33.398;-70.572;2022-08-19T07:11:03;20.17;;;8.88;;
74335;SDS011;62755;-33.398;-70.572;2022-08-19T07:13:35;20.52;;;8.52;;
74335;SDS011;62755;-33.398;-70.572;2022-08-19T07:16:07;15.38;;;7.47;;
74335;SDS011;62755;-33.398;-70.572;2022-08-19T07:18:38;13.70;;;7.57;;
74335;SDS011;62755;-33.398;-70.572;2022-08-19T07:21:09;15.10;;;6.85;;
74335;SDS011;62755;-33.398;-70.572;2022-08-19T07:23:41;14.70;;;7.70;;
74335;SDS011;62755;-33.398;-70.572;2022-08-19T07:26:14;16.85;;;9.20;;
74335;SDS011;62755;-33.398;-70.572;2022-08-19T07:28:46;15.85;;;9.27;;
74335;SDS011;62755;-33.398;-70.572;2022-08-19T07:31:19;18.42;;;8.82;;
74335;SDS011;62755;-33.398;-70.572;2022-08-19T07:33:51;17.60;;;10.23;;
74335;SDS011;62755;-33.398;-70.572;2022-08-19T07:36:23;29.48;;;14.60;;
74335;SDS011;62755;-33.398;-70.572;2022-08-19T07:38:58;34.97;;;14.88;;
74335;SDS011;62755;-33.398;-70.572;2022-08-19T07:41:28;33.65;;;17.08;;
74335;SDS011;62755;-33.398;-70.572;2022-08-19T07:43:58;26.08;;;15.85;;
74335;SDS011;62755;-33.398;-70.572;2022-08-19T07:46:31;27.45;;;15.80;;
74335;SDS011;62755;-33.398;-70.572;2022-08-19T07:49:01;34.75;;;17.83;;
74335;SDS011;62755;-33.398;-70.572;2022-08-19T07:51:32;33.13;;;17.33;;
74335;SDS011;62755;-33.398;-70.572;2022-08-19T07:54:02;32.17;;;16.00;;
74335;SDS011;62755;-33.398;-70.572;2022-08-19T07:56:31;34.22;;;17.83;;
74335;SDS011;62755;-33.398;-70.572;2022-08-19T07:59:01;34.45;;;16.73;;
74335;SDS011;62755;-33.398;-70.572;2022-08-19T08:01:32;28.45;;;16.35;;
74335;SDS011;62755;-33.398;-70.572;2022-08-19T08:04:02;25.73;;;13.48;;
74335;SDS011;62755;-33.398;-70.572;2022-08-19T08:06:48;20.30;;;12.40;;
74335;SDS011;62755;-33.398;-70.572;2022-08-19T08:09:35;24.33;;;11.82;;
74335;SDS011;62755;-33.398;-70.572;2022-08-19T08:12:07;29.92;;;12.88;;
74335;SDS011;62755;-33.398;-70.572;2022-08-19T08:14:40;24.95;;;11.82;;
74335;SDS011;62755;-33.398;-70.572;2022-08-19T08:17:13;16.30;;;8.18;;
74335;SDS011;62755;-33.398;-70.572;2022-08-19T08:19:44;12.18;;;4.20;;
74335;SDS011;62755;-33.398;-70.572;2022-08-19T08:22:16;5.72;;;3.20;;
74335;SDS011;62755;-33.398;-70.572;2022-08-19T08:25:01;8.50;;;3.38;;
74335;SDS011;62755;-33.398;-70.572;2022-08-19T08:27:33;7.80;;;4.35;;
74335;SDS011;62755;-33.398;-70.572;2022-08-19T08:30:05;7.05;;;3.95;;
74335;SDS011;62755;-33.398;-70.572;2022-08-19T08:32:38;8.82;;;5.10;;
74335;SDS011;62755;-33.398;-70.572;2022-08-19T08:35:10;13.52;;;7.00;;
74335;SDS011;62755;-33.398;-70.572;2022-08-19T08:37:40;18.98;;;9.27;;
74335;SDS011;62755;-33.398;-70.572;2022-08-19T08:42:59;20.73;;;10.98;;
74335;SDS011;62755;-33.398;-70.572;2022-08-19T08:45:35;21.98;;;10.77;;
74335;SDS011;62755;-33.398;-70.572;2022-08-19T08:48:17;18.42;;;10.68;;
74335;SDS011;62755;-33.398;-70.572;2022-08-19T08:50:50;20.55;;;10.82;;
74335;SDS011;62755;-33.398;-70.572;2022-08-19T08:53:22;23.25;;;11.38;;
74335;SDS011;62755;-33.398;-70.572;2022-08-19T08:55:53;27.33;;;12.80;;
74335;SDS011;62755;-33.398;-70.572;2022-08-19T08:58:25;26.38;;;13.25;;
74335;SDS011;62755;-33.398;-70.572;2022-08-19T09:00:59;28.65;;;13.75;;
74335;SDS011;62755;-33.398;-70.572;2022-08-19T09:03:31;25.52;;;14.02;;
74335;SDS011;62755;-33.398;-70.572;2022-08-19T09:06:02;24.27;;;14.43;;
74335;SDS011;62755;-33.398;-70.572;2022-08-19T09:08:39;27.52;;;13.93;;
74335;SDS011;62755;-33.398;-70.572;2022-08-19T09:11:14;25.55;;;13.68;;
74335;SDS011;62755;-33.398;-70.572;2022-08-19T09:13:53;22.75;;;12.25;;
74335;SDS011;62755;-33.398;-70.572;2022-08-19T09:16:36;23.15;;;11.77;;
74335;SDS011;62755;-33.398;-70.572;2022-08-19T09:19:09;25.23;;;11.60;;
74335;SDS011;62755;-33.398;-70.572;2022-08-19T09:21:38;19.55;;;11.25;;
74335;SDS011;62755;-33.398;-70.572;2022-08-19T09:24:08;16.40;;;10.07;;
74335;SDS011;62755;-33.398;-70.572;2022-08-19T09:26:38;19.25;;;10.35;;
74335;SDS011;62755;-33.398;-70.572;2022-08-19T09:29:09;20.45;;;9.75;;
74335;SDS011;62755;-33.398;-70.572;2022-08-19T09:31:39;14.25;;;7.55;;
74335;SDS011;62755;-33.398;-70.572;2022-08-19T09:34:10;15.02;;;8.80;;
74335;SDS011;62755;-33.398;-70.572;2022-08-19T09:36:40;18.67;;;9.90;;
74335;SDS011;62755;-33.398;-70.572;2022-08-19T09:39:10;16.65;;;7.60;;
74335;SDS011;62755;-33.398;-70.572;2022-08-19T09:41:39;14.85;;;6.63;;
74335;SDS011;62755;-33.398;-70.572;2022-08-19T09:44:09;19.20;;;7.82;;
74335;SDS011;62755;-33.398;-70.572;2022-08-19T09:46:38;15.60;;;7.43;;
74335;SDS011;62755;-33.398;-70.572;2022-08-19T09:49:08;16.38;;;10.93;;
74335;SDS011;62755;-33.398;-70.572;2022-08-19T09:51:40;20.10;;;10.77;;
74335;SDS011;62755;-33.398;-70.572;2022-08-19T09:54:09;21.17;;;11.40;;
74335;SDS011;62755;-33.398;-70.572;2022-08-19T09:56:39;20.70;;;10.57;;
74335;SDS011;62755;-33.398;-70.572;2022-08-19T09:59:08;20.10;;;10.93;;
74335;SDS011;62755;-33.398;-70.572;2022-08-19T10:01:39;22.20;;;12.38;;
74335;SDS011;62755;-33.398;-70.572;2022-08-19T10:04:08;22.27;;;11.93;;
74335;SDS011;62755;-33.398;-70.572;2022-08-19T10:06:41;19.35;;;10.90;;
74335;SDS011;62755;-33.398;-70.572;2022-08-19T10:09:10;21.42;;;11.02;;
74335;SDS011;62755;-33.398;-70.572;2022-08-19T10:11:40;16.73;;;8.20;;
74335;SDS011;62755;-33.398;-70.572;2022-08-19T10:14:11;16.42;;;8.35;;
74335;SDS011;62755;-33.398;-70.572;2022-08-19T10:16:40;12.55;;;6.38;;
74335;SDS011;62755;-33.398;-70.572;2022-08-19T10:19:12;15.85;;;7.43;;
74335;SDS011;62755;-33.398;-70.572;2022-08-19T10:21:41;16.98;;;6.75;;
74335;SDS011;62755;-33.398;-70.572;2022-08-19T10:24:11;10.60;;;5.65;;
74335;SDS011;62755;-33.398;-70.572;2022-08-19T10:26:40;12.52;;;5.43;;
74335;SDS011;62755;-33.398;-70.572;2022-08-19T10:29:13;8.50;;;5.07;;
74335;SDS011;62755;-33.398;-70.572;2022-08-19T10:31:42;8.18;;;3.90;;
74335;SDS011;62755;-33.398;-70.572;2022-08-19T10:34:14;13.98;;;6.07;;
74335;SDS011;62755;-33.398;-70.572;2022-08-19T10:36:45;11.13;;;6.50;;
74335;SDS011;62755;-33.398;-70.572;2022-08-19T10:39:15;12.05;;;6.93;;
74335;SDS011;62755;-33.398;-70.572;2022-08-19T10:41:45;15.15;;;7.65;;
74335;SDS011;62755;-33.398;-70.572;2022-08-19T10:44:14;16.02;;;9.13;;
74335;SDS011;62755;-33.398;-70.572;2022-08-19T10:46:44;18.27;;;9.35;;
74335;SDS011;62755;-33.398;-70.572;2022-08-19T10:49:15;18.70;;;10.07;;
74335;SDS011;62755;-33.398;-70.572;2022-08-19T10:51:44;13.32;;;7.65;;
74335;SDS011;62755;-33.398;-70.572;2022-08-19T10:54:31;15.20;;;8.13;;
74335;SDS011;62755;-33.398;-70.572;2022-08-19T10:57:18;14.65;;;7.53;;
74335;SDS011;62755;-33.398;-70.572;2022-08-19T10:59:49;17.02;;;8.48;;
74335;SDS011;62755;-33.398;-70.572;2022-08-19T11:02:19;11.02;;;6.25;;
74335;SDS011;62755;-33.398;-70.572;2022-08-19T11:04:50;3.58;;;1.85;;
74335;SDS011;62755;-33.398;-70.572;2022-08-19T11:07:20;3.28;;;1.42;;
74335;SDS011;62755;-33.398;-70.572;2022-08-19T11:09:50;7.93;;;3.92;;
74335;SDS011;62755;-33.398;-70.572;2022-08-19T11:12:20;9.43;;;3.97;;
74335;SDS011;62755;-33.398;-70.572;2022-08-19T11:14:50;11.65;;;2.58;;
74335;SDS011;62755;-33.398;-70.572;2022-08-19T11:17:20;5.50;;;3.13;;
74335;SDS011;62755;-33.398;-70.572;2022-08-19T11:19:51;5.32;;;2.70;;
74335;SDS011;62755;-33.398;-70.572;2022-08-19T11:22:21;5.75;;;2.70;;
74335;SDS011;62755;-33.398;-70.572;2022-08-19T11:24:50;13.77;;;6.88;;
74335;SDS011;62755;-33.398;-70.572;2022-08-19T11:27:22;12.57;;;6.20;;
74335;SDS011;62755;-33.398;-70.572;2022-08-19T11:29:51;12.27;;;4.82;;
74335;SDS011;62755;-33.398;-70.572;2022-08-19T11:32:21;9.20;;;3.42;;
74335;SDS011;62755;-33.398;-70.572;2022-08-19T11:34:52;5.10;;;2.80;;
74335;SDS011;62755;-33.398;-70.572;2022-08-19T11:37:21;6.45;;;3.35;;
74335;SDS011;62755;-33.398;-70.572;2022-08-19T11:39:51;3.25;;;1.38;;
74335;SDS011;62755;-33.398;-70.572;2022-08-19T11:42:21;7.90;;;2.90;;
74335;SDS011;62755;-33.398;-70.572;2022-08-19T11:45:07;3.15;;;1.25;;
74335;SDS011;62755;-33.398;-70.572;2022-08-19T11:47:38;4.32;;;0.95;;
74335;SDS011;62755;-33.398;-70.572;2022-08-19T11:50:09;1.60;;;0.90;;
74335;SDS011;62755;-33.398;-70.572;2022-08-19T11:52:39;1.38;;;0.75;;
74335;SDS011;62755;-33.398;-70.572;2022-08-19T11:55:09;1.23;;;0.77;;
74335;SDS011;62755;-33.398;-70.572;2022-08-19T11:57:39;3.40;;;0.90;;
74335;SDS011;62755;-33.398;-70.572;2022-08-19T12:00:09;3.40;;;0.90;;
74335;SDS011;62755;-33.398;-70.572;2022-08-19T12:02:40;7.18;;;0.75;;
74335;SDS011;62755;-33.398;-70.572;2022-08-19T12:05:11;7.60;;;1.10;;
74335;SDS011;62755;-33.398;-70.572;2022-08-19T12:07:41;10.82;;;1.83;;
74335;SDS011;62755;-33.398;-70.572;2022-08-19T12:10:11;6.85;;;2.53;;
74335;SDS011;62755;-33.398;-70.572;2022-08-19T12:12:41;6.55;;;3.05;;
74335;SDS011;62755;-33.398;-70.572;2022-08-19T12:15:11;6.63;;;2.83;;
74335;SDS011;62755;-33.398;-70.572;2022-08-19T12:17:41;10.65;;;2.13;;
74335;SDS011;62755;-33.398;-70.572;2022-08-19T12:20:12;6.57;;;2.53;;
74335;SDS011;62755;-33.398;-70.572;2022-08-19T12:22:42;11.93;;;3.80;;
74335;SDS011;62755;-33.398;-70.572;2022-08-19T12:25:12;12.52;;;2.28;;
74335;SDS011;62755;-33.398;-70.572;2022-08-19T12:27:42;15.18;;;2.38;;
74335;SDS011;62755;-33.398;-70.572;2022-08-19T12:30:12;26.38;;;3.83;;
74335;SDS011;62755;-33.398;-70.572;2022-08-19T12:32:42;21.13;;;4.57;;
74335;SDS011;62755;-33.398;-70.572;2022-08-19T12:35:13;30.27;;;4.47;;
74335;SDS011;62755;-33.398;-70.572;2022-08-19T12:37:43;27.25;;;5.78;;
74335;SDS011;62755;-33.398;-70.572;2022-08-19T12:40:13;34.33;;;5.20;;
74335;SDS011;62755;-33.398;-70.572;2022-08-19T12:42:43;26.45;;;4.95;;
74335;SDS011;62755;-33.398;-70.572;2022-08-19T12:45:15;21.13;;;5.25;;
74335;SDS011;62755;-33.398;-70.572;2022-08-19T12:47:44;27.85;;;7.45;;
74335;SDS011;62755;-33.398;-70.572;2022-08-19T12:50:16;34.05;;;8.30;;
74335;SDS011;62755;-33.398;-70.572;2022-08-19T12:52:47;34.10;;;7.03;;
74335;SDS011;62755;-33.398;-70.572;2022-08-19T12:55:17;57.47;;;9.20;;
74335;SDS011;62755;-33.398;-70.572;2022-08-19T12:57:46;68.45;;;9.98;;
74335;SDS011;62755;-33.398;-70.572;2022-08-19T13:00:17;25.85;;;8.93;;
74335;SDS011;62755;-33.398;-70.572;2022-08-19T13:02:48;27.20;;;8.68;;
74335;SDS011;62755;-33.398;-70.572;2022-08-19T13:05:21;27.90;;;7.60;;
74335;SDS011;62755;-33.398;-70.572;2022-08-19T13:07:53;19.17;;;7.05;;
74335;SDS011;62755;-33.398;-70.572;2022-08-19T13:10:26;28.88;;;7.22;;
74335;SDS011;62755;-33.398;-70.572;2022-08-19T13:13:00;30.73;;;8.57;;
74335;SDS011;62755;-33.398;-70.572;2022-08-19T13:15:32;37.63;;;10.98;;
74335;SDS011;62755;-33.398;-70.572;2022-08-19T13:18:02;23.58;;;8.75;;
74335;SDS011;62755;-33.398;-70.572;2022-08-19T13:20:34;31.67;;;9.10;;
74335;SDS011;62755;-33.398;-70.572;2022-08-19T13:23:06;26.75;;;8.50;;
74335;SDS011;62755;-33.398;-70.572;2022-08-19T13:25:36;25.88;;;9.77;;
74335;SDS011;62755;-33.398;-70.572;2022-08-19T13:28:05;36.10;;;11.13;;
74335;SDS011;62755;-33.398;-70.572;2022-08-19T13:30:35;27.95;;;10.25;;
74335;SDS011;62755;-33.398;-70.572;2022-08-19T13:33:21;30.38;;;10.63;;
74335;SDS011;62755;-33.398;-70.572;2022-08-19T13:35:56;31.02;;;10.25;;
74335;SDS011;62755;-33.398;-70.572;2022-08-19T13:38:26;32.03;;;9.93;;
74335;SDS011;62755;-33.398;-70.572;2022-08-19T13:40:57;39.22;;;12.65;;
74335;SDS011;62755;-33.398;-70.572;2022-08-19T13:43:34;28.10;;;10.38;;
74335;SDS011;62755;-33.398;-70.572;2022-08-19T13:46:07;27.13;;;8.48;;
74335;SDS011;62755;-33.398;-70.572;2022-08-19T13:48:39;30.38;;;8.85;;
74335;SDS011;62755;-33.398;-70.572;2022-08-19T13:51:11;30.65;;;10.38;;
74335;SDS011;62755;-33.398;-70.572;2022-08-19T13:53:42;41.75;;;10.75;;
74335;SDS011;62755;-33.398;-70.572;2022-08-19T13:56:12;29.23;;;10.68;;
74335;SDS011;62755;-33.398;-70.572;2022-08-19T13:58:43;32.40;;;10.93;;
74335;SDS011;62755;-33.398;-70.572;2022-08-19T14:01:17;26.55;;;9.77;;
74335;SDS011;62755;-33.398;-70.572;2022-08-19T14:03:48;16.67;;;8.52;;
74335;SDS011;62755;-33.398;-70.572;2022-08-19T14:06:20;20.65;;;8.05;;
74335;SDS011;62755;-33.398;-70.572;2022-08-19T14:08:51;16.45;;;7.20;;
74335;SDS011;62755;-33.398;-70.572;2022-08-19T14:11:20;19.27;;;6.80;;
74335;SDS011;62755;-33.398;-70.572;2022-08-19T14:13:50;24.17;;;6.60;;